sensor_id;sensor_type;location;lat;lon;timestamp;P1;durP1;ratioP1;P2;durP2;ratioP2
19219;SDS011;9744;49.364;7.484;2022-12-18T00:02:22;48.37;;;21.03;;
19219;SDS011;9744;49.364;7.484;2022-12-18T00:04:49;52.43;;;21.57;;
19219;SDS011;9744;49.364;7.484;2022-12-18T00:07:17;48.97;;;19.37;;
19219;SDS011;9744;49.364;7.484;2022-12-18T00:09:44;46.23;;;20.37;;
19219;SDS011;9744;49.364;7.484;2022-12-18T00:12:12;44.43;;;20.47;;
19219;SDS011;9744;49.364;7.484;2022-12-18T00:14:39;52.77;;;20.07;;
19219;SDS011;9744;49.364;7.484;2022-12-18T00:17:09;48.60;;;20.70;;
19219;SDS011;9744;49.364;7.484;2022-12-18T00:19:38;50.03;;;21.40;;
19219;SDS011;9744;49.364;7.484;2022-12-18T00:22:05;45.30;;;19.27;;
19219;SDS011;9744;49.364;7.484;2022-12-18T00:24:32;44.80;;;19.33;;
19219;SDS011;9744;49.364;7.484;2022-12-18T00:26:59;41.60;;;19.17;;
19219;SDS011;9744;49.364;7.484;2022-12-18T00:29:26;44.23;;;19.67;;
19219;SDS011;9744;49.364;7.484;2022-12-18T00:31:54;50.67;;;20.73;;
19219;SDS011;9744;49.364;7.484;2022-12-18T00:34:21;49.37;;;19.37;;
19219;SDS011;9744;49.364;7.484;2022-12-18T00:36:50;44.53;;;19.57;;
19219;SDS011;9744;49.364;7.484;2022-12-18T00:39:17;47.30;;;20.23;;
19219;SDS011;9744;49.364;7.484;2022-12-18T00:41:44;44.70;;;20.07;;
19219;SDS011;9744;49.364;7.484;2022-12-18T00:44:30;46.33;;;21.00;;
19219;SDS011;9744;49.364;7.484;2022-12-18T00:46:57;46.43;;;19.57;;
19219;SDS011;9744;49.364;7.484;2022-12-18T00:49:24;46.00;;;19.47;;
19219;SDS011;9744;49.364;7.484;2022-12-18T00:51:53;40.87;;;19.37;;
19219;SDS011;9744;49.364;7.484;2022-12-18T00:54:20;45.20;;;20.07;;
19219;SDS011;9744;49.364;7.484;2022-12-18T00:56:49;41.30;;;19.13;;
19219;SDS011;9744;49.364;7.484;2022-12-18T00:59:16;47.60;;;20.90;;
19219;SDS011;9744;49.364;7.484;2022-12-18T01:01:44;44.77;;;19.57;;
19219;SDS011;9744;49.364;7.484;2022-12-18T01:04:11;44.63;;;19.50;;
19219;SDS011;9744;49.364;7.484;2022-12-18T01:06:39;43.07;;;19.40;;
19219;SDS011;9744;49.364;7.484;2022-12-18T01:09:08;49.37;;;20.67;;
19219;SDS011;9744;49.364;7.484;2022-12-18T01:11:35;44.63;;;19.17;;
19219;SDS011;9744;49.364;7.484;2022-12-18T01:14:03;44.80;;;19.83;;
19219;SDS011;9744;49.364;7.484;2022-12-18T01:16:30;47.53;;;20.00;;
19219;SDS011;9744;49.364;7.484;2022-12-18T01:18:58;43.87;;;19.90;;
19219;SDS011;9744;49.364;7.484;2022-12-18T01:21:26;45.07;;;19.77;;
19219;SDS011;9744;49.364;7.484;2022-12-18T01:23:54;45.20;;;19.97;;
19219;SDS011;9744;49.364;7.484;2022-12-18T01:26:24;50.37;;;19.60;;
19219;SDS011;9744;49.364;7.484;2022-12-18T01:28:54;43.27;;;19.73;;
19219;SDS011;9744;49.364;7.484;2022-12-18T01:31:23;43.53;;;19.07;;
19219;SDS011;9744;49.364;7.484;2022-12-18T01:33:52;44.33;;;18.57;;
19219;SDS011;9744;49.364;7.484;2022-12-18T01:36:21;45.43;;;19.33;;
19219;SDS011;9744;49.364;7.484;2022-12-18T01:38:50;40.27;;;19.23;;
19219;SDS011;9744;49.364;7.484;2022-12-18T01:41:19;45.53;;;19.53;;
19219;SDS011;9744;49.364;7.484;2022-12-18T01:43:51;44.93;;;18.77;;
19219;SDS011;9744;49.364;7.484;2022-12-18T01:46:20;46.93;;;20.73;;
19219;SDS011;9744;49.364;7.484;2022-12-18T01:48:49;44.50;;;19.30;;
19219;SDS011;9744;49.364;7.484;2022-12-18T01:51:20;47.73;;;19.63;;
19219;SDS011;9744;49.364;7.484;2022-12-18T01:53:49;42.13;;;18.67;;
19219;SDS011;9744;49.364;7.484;2022-12-18T01:56:17;42.70;;;19.20;;
19219;SDS011;9744;49.364;7.484;2022-12-18T01:58:52;45.70;;;19.47;;
19219;SDS011;9744;49.364;7.484;2022-12-18T02:01:23;41.73;;;18.47;;
19219;SDS011;9744;49.364;7.484;2022-12-18T02:03:52;43.20;;;18.17;;
19219;SDS011;9744;49.364;7.484;2022-12-18T02:06:21;44.40;;;18.83;;
19219;SDS011;9744;49.364;7.484;2022-12-18T02:09:02;38.37;;;17.13;;
19219;SDS011;9744;49.364;7.484;2022-12-18T02:11:39;41.03;;;18.33;;
19219;SDS011;9744;49.364;7.484;2022-12-18T02:14:20;42.53;;;19.40;;
19219;SDS011;9744;49.364;7.484;2022-12-18T02:16:57;45.60;;;18.57;;
19219;SDS011;9744;49.364;7.484;2022-12-18T02:22:24;45.83;;;19.60;;
19219;SDS011;9744;49.364;7.484;2022-12-18T02:25:08;43.37;;;18.30;;
19219;SDS011;9744;49.364;7.484;2022-12-18T02:27:48;49.67;;;20.33;;
19219;SDS011;9744;49.364;7.484;2022-12-18T02:30:19;43.07;;;18.73;;
19219;SDS011;9744;49.364;7.484;2022-12-18T02:32:49;47.63;;;18.87;;
19219;SDS011;9744;49.364;7.484;2022-12-18T02:35:20;48.13;;;20.20;;
19219;SDS011;9744;49.364;7.484;2022-12-18T02:37:52;45.80;;;19.37;;
19219;SDS011;9744;49.364;7.484;2022-12-18T02:40:20;45.60;;;18.67;;
19219;SDS011;9744;49.364;7.484;2022-12-18T02:42:52;39.47;;;17.30;;
19219;SDS011;9744;49.364;7.484;2022-12-18T02:45:19;42.40;;;18.27;;
19219;SDS011;9744;49.364;7.484;2022-12-18T02:47:47;42.73;;;18.83;;
19219;SDS011;9744;49.364;7.484;2022-12-18T02:50:18;41.90;;;19.20;;
19219;SDS011;9744;49.364;7.484;2022-12-18T02:52:56;46.57;;;18.80;;
19219;SDS011;9744;49.364;7.484;2022-12-18T02:55:35;45.23;;;19.27;;
19219;SDS011;9744;49.364;7.484;2022-12-18T02:58:16;46.77;;;18.20;;
19219;SDS011;9744;49.364;7.484;2022-12-18T03:00:51;45.57;;;18.27;;
19219;SDS011;9744;49.364;7.484;2022-12-18T03:03:24;46.20;;;18.30;;
19219;SDS011;9744;49.364;7.484;2022-12-18T03:05:58;41.13;;;17.73;;
19219;SDS011;9744;49.364;7.484;2022-12-18T03:08:31;45.17;;;18.07;;
19219;SDS011;9744;49.364;7.484;2022-12-18T03:11:03;44.40;;;18.87;;
19219;SDS011;9744;49.364;7.484;2022-12-18T03:13:36;45.53;;;18.20;;
19219;SDS011;9744;49.364;7.484;2022-12-18T03:16:07;41.47;;;18.80;;
19219;SDS011;9744;49.364;7.484;2022-12-18T03:18:38;44.43;;;18.47;;
19219;SDS011;9744;49.364;7.484;2022-12-18T03:21:12;40.43;;;17.87;;
19219;SDS011;9744;49.364;7.484;2022-12-18T03:23:42;47.07;;;19.10;;
19219;SDS011;9744;49.364;7.484;2022-12-18T03:26:15;44.47;;;17.93;;
19219;SDS011;9744;49.364;7.484;2022-12-18T03:28:50;42.17;;;17.80;;
19219;SDS011;9744;49.364;7.484;2022-12-18T03:31:19;43.90;;;18.30;;
19219;SDS011;9744;49.364;7.484;2022-12-18T03:33:51;40.17;;;18.00;;
19219;SDS011;9744;49.364;7.484;2022-12-18T03:36:24;40.47;;;18.00;;
19219;SDS011;9744;49.364;7.484;2022-12-18T03:38:55;46.50;;;17.97;;
19219;SDS011;9744;49.364;7.484;2022-12-18T03:41:31;43.30;;;18.13;;
19219;SDS011;9744;49.364;7.484;2022-12-18T03:44:26;41.67;;;17.73;;
19219;SDS011;9744;49.364;7.484;2022-12-18T03:46:58;41.67;;;18.10;;
19219;SDS011;9744;49.364;7.484;2022-12-18T03:49:33;45.20;;;18.40;;
19219;SDS011;9744;49.364;7.484;2022-12-18T03:52:06;40.23;;;16.90;;
19219;SDS011;9744;49.364;7.484;2022-12-18T03:54:39;42.50;;;17.37;;
19219;SDS011;9744;49.364;7.484;2022-12-18T03:57:15;43.67;;;17.87;;
19219;SDS011;9744;49.364;7.484;2022-12-18T03:59:49;43.43;;;18.57;;
19219;SDS011;9744;49.364;7.484;2022-12-18T04:02:22;49.97;;;19.57;;
19219;SDS011;9744;49.364;7.484;2022-12-18T04:04:51;55.53;;;21.37;;
19219;SDS011;9744;49.364;7.484;2022-12-18T04:07:21;47.53;;;19.00;;
19219;SDS011;9744;49.364;7.484;2022-12-18T04:09:50;47.27;;;19.03;;
19219;SDS011;9744;49.364;7.484;2022-12-18T04:12:23;45.23;;;19.37;;
19219;SDS011;9744;49.364;7.484;2022-12-18T04:14:52;41.77;;;18.17;;
19219;SDS011;9744;49.364;7.484;2022-12-18T04:17:21;42.60;;;18.97;;
19219;SDS011;9744;49.364;7.484;2022-12-18T04:19:49;47.47;;;19.03;;
19219;SDS011;9744;49.364;7.484;2022-12-18T04:22:16;48.77;;;19.40;;
19219;SDS011;9744;49.364;7.484;2022-12-18T04:24:47;43.10;;;18.43;;
19219;SDS011;9744;49.364;7.484;2022-12-18T04:27:23;44.00;;;18.33;;
19219;SDS011;9744;49.364;7.484;2022-12-18T04:29:50;47.23;;;18.93;;
19219;SDS011;9744;49.364;7.484;2022-12-18T04:32:19;46.67;;;18.87;;
19219;SDS011;9744;49.364;7.484;2022-12-18T04:34:47;49.57;;;19.77;;
19219;SDS011;9744;49.364;7.484;2022-12-18T04:37:14;47.00;;;18.43;;
19219;SDS011;9744;49.364;7.484;2022-12-18T04:39:42;46.50;;;19.37;;
19219;SDS011;9744;49.364;7.484;2022-12-18T04:42:17;44.93;;;19.73;;
19219;SDS011;9744;49.364;7.484;2022-12-18T04:44:44;47.97;;;18.57;;
19219;SDS011;9744;49.364;7.484;2022-12-18T04:47:11;47.53;;;18.10;;
19219;SDS011;9744;49.364;7.484;2022-12-18T04:49:40;48.63;;;18.90;;
19219;SDS011;9744;49.364;7.484;2022-12-18T04:52:07;51.90;;;20.20;;
19219;SDS011;9744;49.364;7.484;2022-12-18T04:54:34;51.30;;;18.50;;
19219;SDS011;9744;49.364;7.484;2022-12-18T04:57:01;46.63;;;18.93;;
19219;SDS011;9744;49.364;7.484;2022-12-18T04:59:28;49.87;;;19.17;;
19219;SDS011;9744;49.364;7.484;2022-12-18T05:01:55;50.87;;;20.30;;
19219;SDS011;9744;49.364;7.484;2022-12-18T05:04:22;50.70;;;20.83;;
19219;SDS011;9744;49.364;7.484;2022-12-18T05:06:51;47.87;;;19.27;;
19219;SDS011;9744;49.364;7.484;2022-12-18T05:09:18;46.53;;;19.07;;
19219;SDS011;9744;49.364;7.484;2022-12-18T05:11:45;46.90;;;18.37;;
19219;SDS011;9744;49.364;7.484;2022-12-18T05:14:12;46.50;;;18.93;;
19219;SDS011;9744;49.364;7.484;2022-12-18T05:16:40;51.27;;;19.60;;
19219;SDS011;9744;49.364;7.484;2022-12-18T05:19:07;48.83;;;18.97;;
19219;SDS011;9744;49.364;7.484;2022-12-18T05:21:34;47.73;;;18.83;;
19219;SDS011;9744;49.364;7.484;2022-12-18T05:24:03;46.67;;;19.30;;
19219;SDS011;9744;49.364;7.484;2022-12-18T05:26:30;52.80;;;20.23;;
19219;SDS011;9744;49.364;7.484;2022-12-18T05:28:57;51.03;;;19.37;;
19219;SDS011;9744;49.364;7.484;2022-12-18T05:31:25;51.07;;;20.43;;
19219;SDS011;9744;49.364;7.484;2022-12-18T05:33:52;49.33;;;20.47;;
19219;SDS011;9744;49.364;7.484;2022-12-18T05:36:19;49.97;;;20.27;;
19219;SDS011;9744;49.364;7.484;2022-12-18T05:38:46;54.00;;;19.30;;
19219;SDS011;9744;49.364;7.484;2022-12-18T05:41:14;51.67;;;20.03;;
19219;SDS011;9744;49.364;7.484;2022-12-18T05:43:42;52.70;;;19.57;;
19219;SDS011;9744;49.364;7.484;2022-12-18T05:46:11;49.83;;;19.63;;
19219;SDS011;9744;49.364;7.484;2022-12-18T05:48:39;43.83;;;17.43;;
19219;SDS011;9744;49.364;7.484;2022-12-18T05:51:07;47.30;;;18.10;;
19219;SDS011;9744;49.364;7.484;2022-12-18T05:53:36;44.93;;;18.47;;
19219;SDS011;9744;49.364;7.484;2022-12-18T05:56:04;45.30;;;18.17;;
19219;SDS011;9744;49.364;7.484;2022-12-18T05:58:35;46.57;;;19.20;;
19219;SDS011;9744;49.364;7.484;2022-12-18T06:01:06;47.77;;;18.47;;
19219;SDS011;9744;49.364;7.484;2022-12-18T06:03:35;53.53;;;19.70;;
19219;SDS011;9744;49.364;7.484;2022-12-18T06:06:02;48.47;;;18.57;;
19219;SDS011;9744;49.364;7.484;2022-12-18T06:08:29;45.23;;;18.90;;
19219;SDS011;9744;49.364;7.484;2022-12-18T06:10:57;46.70;;;18.23;;
19219;SDS011;9744;49.364;7.484;2022-12-18T06:13:24;45.43;;;18.57;;
19219;SDS011;9744;49.364;7.484;2022-12-18T06:15:52;44.13;;;18.60;;
19219;SDS011;9744;49.364;7.484;2022-12-18T06:18:19;40.40;;;17.73;;
19219;SDS011;9744;49.364;7.484;2022-12-18T06:20:53;46.10;;;18.20;;
19219;SDS011;9744;49.364;7.484;2022-12-18T06:23:22;44.87;;;17.27;;
19219;SDS011;9744;49.364;7.484;2022-12-18T06:25:49;45.13;;;18.30;;
19219;SDS011;9744;49.364;7.484;2022-12-18T06:28:16;47.73;;;18.67;;
19219;SDS011;9744;49.364;7.484;2022-12-18T06:30:43;50.27;;;18.77;;
19219;SDS011;9744;49.364;7.484;2022-12-18T06:33:12;47.03;;;19.90;;
19219;SDS011;9744;49.364;7.484;2022-12-18T06:35:40;53.60;;;19.43;;
19219;SDS011;9744;49.364;7.484;2022-12-18T06:38:07;47.57;;;18.20;;
19219;SDS011;9744;49.364;7.484;2022-12-18T06:40:35;42.70;;;18.33;;
19219;SDS011;9744;49.364;7.484;2022-12-18T06:43:03;43.37;;;17.73;;
19219;SDS011;9744;49.364;7.484;2022-12-18T06:45:30;42.67;;;18.30;;
19219;SDS011;9744;49.364;7.484;2022-12-18T06:47:57;45.47;;;19.40;;
19219;SDS011;9744;49.364;7.484;2022-12-18T06:50:26;43.87;;;18.43;;
19219;SDS011;9744;49.364;7.484;2022-12-18T06:52:53;46.13;;;18.67;;
19219;SDS011;9744;49.364;7.484;2022-12-18T06:55:20;46.47;;;18.10;;
19219;SDS011;9744;49.364;7.484;2022-12-18T06:57:47;47.33;;;18.03;;
19219;SDS011;9744;49.364;7.484;2022-12-18T07:00:14;47.17;;;19.27;;
19219;SDS011;9744;49.364;7.484;2022-12-18T07:02:42;47.67;;;20.40;;
19219;SDS011;9744;49.364;7.484;2022-12-18T07:05:09;55.43;;;22.33;;
19219;SDS011;9744;49.364;7.484;2022-12-18T07:07:37;60.27;;;23.80;;
19219;SDS011;9744;49.364;7.484;2022-12-18T07:10:05;53.97;;;22.83;;
19219;SDS011;9744;49.364;7.484;2022-12-18T07:12:32;57.03;;;24.20;;
19219;SDS011;9744;49.364;7.484;2022-12-18T07:14:59;57.30;;;24.70;;
19219;SDS011;9744;49.364;7.484;2022-12-18T07:17:26;59.47;;;24.87;;
19219;SDS011;9744;49.364;7.484;2022-12-18T07:19:54;56.23;;;23.60;;
19219;SDS011;9744;49.364;7.484;2022-12-18T07:22:21;56.70;;;24.20;;
19219;SDS011;9744;49.364;7.484;2022-12-18T07:24:50;53.63;;;23.33;;
19219;SDS011;9744;49.364;7.484;2022-12-18T07:27:17;52.73;;;22.53;;
19219;SDS011;9744;49.364;7.484;2022-12-18T07:29:44;52.50;;;21.13;;
19219;SDS011;9744;49.364;7.484;2022-12-18T07:32:11;50.63;;;20.40;;
19219;SDS011;9744;49.364;7.484;2022-12-18T07:34:38;48.50;;;20.20;;
19219;SDS011;9744;49.364;7.484;2022-12-18T07:37:05;46.97;;;19.27;;
19219;SDS011;9744;49.364;7.484;2022-12-18T07:39:32;49.63;;;19.50;;
19219;SDS011;9744;49.364;7.484;2022-12-18T07:42:01;50.43;;;19.20;;
19219;SDS011;9744;49.364;7.484;2022-12-18T07:44:46;45.73;;;18.90;;
19219;SDS011;9744;49.364;7.484;2022-12-18T07:47:13;50.37;;;20.13;;
19219;SDS011;9744;49.364;7.484;2022-12-18T07:49:40;50.50;;;20.53;;
19219;SDS011;9744;49.364;7.484;2022-12-18T07:52:07;50.73;;;21.07;;
19219;SDS011;9744;49.364;7.484;2022-12-18T07:54:34;48.73;;;21.07;;
19219;SDS011;9744;49.364;7.484;2022-12-18T07:57:03;53.77;;;20.93;;
19219;SDS011;9744;49.364;7.484;2022-12-18T07:59:30;48.27;;;20.57;;
19219;SDS011;9744;49.364;7.484;2022-12-18T08:01:57;49.03;;;20.00;;
19219;SDS011;9744;49.364;7.484;2022-12-18T08:04:24;48.70;;;21.20;;
19219;SDS011;9744;49.364;7.484;2022-12-18T08:06:52;56.00;;;21.77;;
19219;SDS011;9744;49.364;7.484;2022-12-18T08:09:19;52.23;;;21.50;;
19219;SDS011;9744;49.364;7.484;2022-12-18T08:11:46;54.83;;;21.43;;
19219;SDS011;9744;49.364;7.484;2022-12-18T08:14:15;54.80;;;21.93;;
19219;SDS011;9744;49.364;7.484;2022-12-18T08:16:42;51.17;;;20.77;;
19219;SDS011;9744;49.364;7.484;2022-12-18T08:19:10;51.23;;;21.87;;
19219;SDS011;9744;49.364;7.484;2022-12-18T08:21:37;52.70;;;20.27;;
19219;SDS011;9744;49.364;7.484;2022-12-18T08:24:08;49.67;;;20.40;;
19219;SDS011;9744;49.364;7.484;2022-12-18T08:26:35;49.37;;;20.10;;
19219;SDS011;9744;49.364;7.484;2022-12-18T08:29:03;52.90;;;21.77;;
19219;SDS011;9744;49.364;7.484;2022-12-18T08:31:31;51.27;;;21.33;;
19219;SDS011;9744;49.364;7.484;2022-12-18T08:33:59;51.17;;;21.23;;
19219;SDS011;9744;49.364;7.484;2022-12-18T08:36:26;47.13;;;19.60;;
19219;SDS011;9744;49.364;7.484;2022-12-18T08:38:53;53.80;;;21.97;;
19219;SDS011;9744;49.364;7.484;2022-12-18T08:41:21;66.57;;;27.30;;
19219;SDS011;9744;49.364;7.484;2022-12-18T08:43:48;67.67;;;26.20;;
19219;SDS011;9744;49.364;7.484;2022-12-18T08:46:35;59.53;;;24.40;;
19219;SDS011;9744;49.364;7.484;2022-12-18T08:49:04;63.23;;;24.60;;
19219;SDS011;9744;49.364;7.484;2022-12-18T08:51:32;60.77;;;23.57;;
19219;SDS011;9744;49.364;7.484;2022-12-18T08:54:00;53.47;;;22.67;;
19219;SDS011;9744;49.364;7.484;2022-12-18T08:56:27;54.60;;;22.50;;
19219;SDS011;9744;49.364;7.484;2022-12-18T08:58:55;52.47;;;21.77;;
19219;SDS011;9744;49.364;7.484;2022-12-18T09:01:23;47.53;;;19.93;;
19219;SDS011;9744;49.364;7.484;2022-12-18T09:03:52;53.03;;;21.60;;
19219;SDS011;9744;49.364;7.484;2022-12-18T09:06:19;54.03;;;21.53;;
19219;SDS011;9744;49.364;7.484;2022-12-18T09:08:48;86.10;;;32.10;;
19219;SDS011;9744;49.364;7.484;2022-12-18T09:11:19;90.77;;;34.87;;
19219;SDS011;9744;49.364;7.484;2022-12-18T09:13:47;67.43;;;27.57;;
19219;SDS011;9744;49.364;7.484;2022-12-18T09:16:15;64.27;;;25.13;;
19219;SDS011;9744;49.364;7.484;2022-12-18T09:18:42;59.57;;;24.37;;
19219;SDS011;9744;49.364;7.484;2022-12-18T09:21:12;52.23;;;22.57;;
19219;SDS011;9744;49.364;7.484;2022-12-18T09:23:40;55.17;;;22.73;;
19219;SDS011;9744;49.364;7.484;2022-12-18T09:26:07;53.23;;;21.80;;
19219;SDS011;9744;49.364;7.484;2022-12-18T09:28:35;55.17;;;22.77;;
19219;SDS011;9744;49.364;7.484;2022-12-18T09:31:06;55.50;;;21.20;;
19219;SDS011;9744;49.364;7.484;2022-12-18T09:33:34;52.07;;;21.27;;
19219;SDS011;9744;49.364;7.484;2022-12-18T09:36:02;57.40;;;23.27;;
19219;SDS011;9744;49.364;7.484;2022-12-18T09:38:32;56.97;;;23.30;;
19219;SDS011;9744;49.364;7.484;2022-12-18T09:41:00;63.13;;;27.10;;
19219;SDS011;9744;49.364;7.484;2022-12-18T09:43:33;60.97;;;26.60;;
19219;SDS011;9744;49.364;7.484;2022-12-18T09:46:07;62.57;;;27.20;;
19219;SDS011;9744;49.364;7.484;2022-12-18T09:48:39;65.13;;;27.37;;
19219;SDS011;9744;49.364;7.484;2022-12-18T09:51:10;65.80;;;28.07;;
19219;SDS011;9744;49.364;7.484;2022-12-18T09:53:44;65.57;;;27.83;;
19219;SDS011;9744;49.364;7.484;2022-12-18T09:56:17;60.67;;;26.27;;
19219;SDS011;9744;49.364;7.484;2022-12-18T09:58:49;66.13;;;28.43;;
19219;SDS011;9744;49.364;7.484;2022-12-18T10:01:22;62.70;;;27.40;;
19219;SDS011;9744;49.364;7.484;2022-12-18T10:03:50;64.67;;;27.97;;
19219;SDS011;9744;49.364;7.484;2022-12-18T10:06:20;60.83;;;25.80;;
19219;SDS011;9744;49.364;7.484;2022-12-18T10:08:56;68.47;;;27.37;;
19219;SDS011;9744;49.364;7.484;2022-12-18T10:11:32;62.33;;;26.70;;
19219;SDS011;9744;49.364;7.484;2022-12-18T10:14:08;61.73;;;28.10;;
19219;SDS011;9744;49.364;7.484;2022-12-18T10:16:43;70.80;;;30.87;;
19219;SDS011;9744;49.364;7.484;2022-12-18T10:19:26;63.57;;;28.17;;
19219;SDS011;9744;49.364;7.484;2022-12-18T10:22:18;62.50;;;27.30;;
19219;SDS011;9744;49.364;7.484;2022-12-18T10:25:15;59.23;;;26.33;;
19219;SDS011;9744;49.364;7.484;2022-12-18T10:27:47;65.50;;;28.77;;
19219;SDS011;9744;49.364;7.484;2022-12-18T10:30:18;65.53;;;29.83;;
19219;SDS011;9744;49.364;7.484;2022-12-18T10:32:47;66.03;;;28.07;;
19219;SDS011;9744;49.364;7.484;2022-12-18T10:35:16;64.65;;;28.92;;
19219;SDS011;9744;49.364;7.484;2022-12-18T10:37:59;66.07;;;30.23;;
19219;SDS011;9744;49.364;7.484;2022-12-18T10:40:31;63.53;;;29.67;;
19219;SDS011;9744;49.364;7.484;2022-12-18T10:43:03;67.70;;;30.93;;
19219;SDS011;9744;49.364;7.484;2022-12-18T10:45:31;62.87;;;28.97;;
19219;SDS011;9744;49.364;7.484;2022-12-18T10:47:58;63.80;;;27.57;;
19219;SDS011;9744;49.364;7.484;2022-12-18T10:50:26;73.17;;;31.53;;
19219;SDS011;9744;49.364;7.484;2022-12-18T10:52:58;63.00;;;27.23;;
19219;SDS011;9744;49.364;7.484;2022-12-18T10:55:27;64.55;;;29.02;;
19219;SDS011;9744;49.364;7.484;2022-12-18T10:58:13;65.03;;;29.20;;
19219;SDS011;9744;49.364;7.484;2022-12-18T11:01:01;59.72;;;27.42;;
19219;SDS011;9744;49.364;7.484;2022-12-18T11:03:31;61.07;;;27.03;;
19219;SDS011;9744;49.364;7.484;2022-12-18T11:06:01;59.28;;;27.92;;
19219;SDS011;9744;49.364;7.484;2022-12-18T11:08:30;67.28;;;28.50;;
19219;SDS011;9744;49.364;7.484;2022-12-18T11:10:59;65.50;;;28.60;;
19219;SDS011;9744;49.364;7.484;2022-12-18T11:13:28;60.53;;;27.20;;
19219;SDS011;9744;49.364;7.484;2022-12-18T11:15:57;59.87;;;28.20;;
19219;SDS011;9744;49.364;7.484;2022-12-18T11:18:26;57.50;;;27.53;;
19219;SDS011;9744;49.364;7.484;2022-12-18T11:20:55;59.65;;;27.40;;
19219;SDS011;9744;49.364;7.484;2022-12-18T11:23:24;60.40;;;27.75;;
19219;SDS011;9744;49.364;7.484;2022-12-18T11:25:54;62.55;;;28.02;;
19219;SDS011;9744;49.364;7.484;2022-12-18T11:28:29;62.42;;;28.50;;
19219;SDS011;9744;49.364;7.484;2022-12-18T11:31:15;55.72;;;26.15;;
19219;SDS011;9744;49.364;7.484;2022-12-18T11:33:46;62.63;;;27.33;;
19219;SDS011;9744;49.364;7.484;2022-12-18T11:36:31;54.50;;;25.85;;
19219;SDS011;9744;49.364;7.484;2022-12-18T11:39:02;60.35;;;28.67;;
19219;SDS011;9744;49.364;7.484;2022-12-18T11:41:37;64.20;;;28.65;;
19219;SDS011;9744;49.364;7.484;2022-12-18T11:44:28;67.13;;;29.90;;
19219;SDS011;9744;49.364;7.484;2022-12-18T11:47:01;70.75;;;31.85;;
19219;SDS011;9744;49.364;7.484;2022-12-18T11:49:32;80.97;;;32.78;;
19219;SDS011;9744;49.364;7.484;2022-12-18T11:52:01;77.70;;;33.55;;
19219;SDS011;9744;49.364;7.484;2022-12-18T11:54:34;76.68;;;35.42;;
19219;SDS011;9744;49.364;7.484;2022-12-18T11:57:04;69.07;;;31.30;;
19219;SDS011;9744;49.364;7.484;2022-12-18T11:59:38;64.53;;;27.52;;
19219;SDS011;9744;49.364;7.484;2022-12-18T12:02:24;57.53;;;27.25;;
19219;SDS011;9744;49.364;7.484;2022-12-18T12:05:05;70.05;;;28.85;;
19219;SDS011;9744;49.364;7.484;2022-12-18T12:07:46;58.83;;;29.15;;
19219;SDS011;9744;49.364;7.484;2022-12-18T12:10:24;60.53;;;29.10;;
19219;SDS011;9744;49.364;7.484;2022-12-18T12:13:03;60.60;;;27.67;;
19219;SDS011;9744;49.364;7.484;2022-12-18T12:15:43;57.80;;;26.90;;
19219;SDS011;9744;49.364;7.484;2022-12-18T12:18:21;74.97;;;31.73;;
19219;SDS011;9744;49.364;7.484;2022-12-18T12:20:57;105.85;;;42.78;;
19219;SDS011;9744;49.364;7.484;2022-12-18T12:23:34;99.53;;;41.42;;
19219;SDS011;9744;49.364;7.484;2022-12-18T12:26:09;76.30;;;33.33;;
19219;SDS011;9744;49.364;7.484;2022-12-18T12:28:49;72.25;;;31.15;;
19219;SDS011;9744;49.364;7.484;2022-12-18T12:31:36;60.53;;;28.05;;
19219;SDS011;9744;49.364;7.484;2022-12-18T12:34:19;68.63;;;30.23;;
19219;SDS011;9744;49.364;7.484;2022-12-18T12:36:57;75.45;;;32.22;;
19219;SDS011;9744;49.364;7.484;2022-12-18T12:39:34;61.05;;;29.40;;
19219;SDS011;9744;49.364;7.484;2022-12-18T12:42:05;67.22;;;28.42;;
19219;SDS011;9744;49.364;7.484;2022-12-18T12:44:54;67.07;;;29.00;;
19219;SDS011;9744;49.364;7.484;2022-12-18T12:47:23;82.15;;;32.97;;
19219;SDS011;9744;49.364;7.484;2022-12-18T12:49:54;81.88;;;32.58;;
19219;SDS011;9744;49.364;7.484;2022-12-18T12:52:27;71.97;;;30.63;;
19219;SDS011;9744;49.364;7.484;2022-12-18T12:54:58;81.20;;;31.38;;
19219;SDS011;9744;49.364;7.484;2022-12-18T12:57:29;71.25;;;30.27;;
19219;SDS011;9744;49.364;7.484;2022-12-18T13:00:04;69.75;;;29.92;;
19219;SDS011;9744;49.364;7.484;2022-12-18T13:02:35;65.90;;;28.23;;
19219;SDS011;9744;49.364;7.484;2022-12-18T13:05:10;64.20;;;27.90;;
19219;SDS011;9744;49.364;7.484;2022-12-18T13:07:46;77.75;;;31.58;;
19219;SDS011;9744;49.364;7.484;2022-12-18T13:10:30;87.78;;;33.65;;
19219;SDS011;9744;49.364;7.484;2022-12-18T13:13:00;74.05;;;30.02;;
19219;SDS011;9744;49.364;7.484;2022-12-18T13:15:34;60.45;;;27.10;;
19219;SDS011;9744;49.364;7.484;2022-12-18T13:18:13;57.95;;;25.88;;
19219;SDS011;9744;49.364;7.484;2022-12-18T13:20:42;60.83;;;27.67;;
19219;SDS011;9744;49.364;7.484;2022-12-18T13:23:28;59.28;;;26.00;;
19219;SDS011;9744;49.364;7.484;2022-12-18T13:25:57;58.95;;;27.33;;
19219;SDS011;9744;49.364;7.484;2022-12-18T13:34:20;62.38;;;26.90;;
19219;SDS011;9744;49.364;7.484;2022-12-18T13:36:49;59.42;;;26.17;;
19219;SDS011;9744;49.364;7.484;2022-12-18T13:39:24;61.15;;;27.20;;
19219;SDS011;9744;49.364;7.484;2022-12-18T13:45:39;69.60;;;28.45;;
19219;SDS011;9744;49.364;7.484;2022-12-18T13:48:19;62.90;;;28.98;;
19219;SDS011;9744;49.364;7.484;2022-12-18T13:51:00;62.65;;;27.23;;
19219;SDS011;9744;49.364;7.484;2022-12-18T13:53:32;71.18;;;28.60;;
19219;SDS011;9744;49.364;7.484;2022-12-18T13:56:03;61.92;;;27.13;;
19219;SDS011;9744;49.364;7.484;2022-12-18T13:58:30;63.88;;;28.13;;
19219;SDS011;9744;49.364;7.484;2022-12-18T14:00:58;59.92;;;26.58;;
19219;SDS011;9744;49.364;7.484;2022-12-18T14:03:27;62.25;;;26.85;;
19219;SDS011;9744;49.364;7.484;2022-12-18T14:05:56;59.00;;;27.92;;
19219;SDS011;9744;49.364;7.484;2022-12-18T14:08:30;75.22;;;29.15;;
19219;SDS011;9744;49.364;7.484;2022-12-18T14:11:01;80.75;;;30.20;;
19219;SDS011;9744;49.364;7.484;2022-12-18T14:13:32;61.70;;;26.88;;
19219;SDS011;9744;49.364;7.484;2022-12-18T14:16:02;60.83;;;27.73;;
19219;SDS011;9744;49.364;7.484;2022-12-18T14:18:33;83.43;;;33.47;;
19219;SDS011;9744;49.364;7.484;2022-12-18T14:21:06;65.45;;;29.33;;
19219;SDS011;9744;49.364;7.484;2022-12-18T14:23:41;64.97;;;28.50;;
19219;SDS011;9744;49.364;7.484;2022-12-18T14:26:19;66.65;;;27.77;;
19219;SDS011;9744;49.364;7.484;2022-12-18T14:28:48;59.17;;;26.00;;
19219;SDS011;9744;49.364;7.484;2022-12-18T14:31:17;59.83;;;26.58;;
19219;SDS011;9744;49.364;7.484;2022-12-18T14:33:45;57.08;;;27.00;;
19219;SDS011;9744;49.364;7.484;2022-12-18T14:36:16;59.80;;;26.50;;
19219;SDS011;9744;49.364;7.484;2022-12-18T14:38:47;61.20;;;26.15;;
19219;SDS011;9744;49.364;7.484;2022-12-18T14:41:16;63.73;;;26.93;;
19219;SDS011;9744;49.364;7.484;2022-12-18T14:43:45;64.17;;;26.83;;
19219;SDS011;9744;49.364;7.484;2022-12-18T14:46:27;60.73;;;27.63;;
19219;SDS011;9744;49.364;7.484;2022-12-18T14:48:59;69.23;;;27.73;;
19219;SDS011;9744;49.364;7.484;2022-12-18T14:51:30;65.70;;;27.03;;
19219;SDS011;9744;49.364;7.484;2022-12-18T14:53:59;62.00;;;26.63;;
19219;SDS011;9744;49.364;7.484;2022-12-18T14:56:28;71.03;;;29.27;;
19219;SDS011;9744;49.364;7.484;2022-12-18T14:58:58;62.03;;;27.57;;
19219;SDS011;9744;49.364;7.484;2022-12-18T15:01:27;63.27;;;28.43;;
19219;SDS011;9744;49.364;7.484;2022-12-18T15:03:56;64.53;;;27.27;;
19219;SDS011;9744;49.364;7.484;2022-12-18T15:06:30;60.20;;;27.13;;
19219;SDS011;9744;49.364;7.484;2022-12-18T15:09:00;62.93;;;27.37;;